This is the latest recevied weather packets stored in our database for station/object VE7OTD. If no packets are shown the sender has not sent any weather packets the latest 1 day(s).
| Time | Temp. | Humidity | Pressure | Rain* | Wind** | Luminosity | Snow |
|---|---|---|---|---|---|---|---|
| 1778055552 | 11.67° C | 99% | 1014.7 hPa | 0 mm | 0 m/s | - | - |
| 1778053722 | 11.67° C | 96% | 1014.3 hPa | 0 mm | 0 m/s | - | - |
| 1778051863 | 12.22° C | 96% | 1014 hPa | 0 mm | 0 m/s | - | - |
| 1778050047 | 12.78° C | 92% | 1013.6 hPa | 0 mm | 0 m/s | - | - |
| 1778048232 | 13.33° C | 91% | 1013.5 hPa | 0 mm | 0.89 m/s, 135° | - | - |
| 1778046417 | 14.44° C | 87% | 1013.3 hPa | 0 mm | 1.34 m/s, 112° | - | - |
| 1778044583 | 14.44° C | 84% | 1013.2 hPa | 0 mm | 0.89 m/s, 202° | - | - |
| 1778042748 | 15° C | 84% | 1012.9 hPa | 0 mm | 0.89 m/s, 158° | - | - |
| 1778040932 | - | - | 1012.6 hPa | 0 mm | 0.89 m/s, 135° | - | - |
| 1778039117 | 16.11° C | 75% | 1012.3 hPa | 0 mm | 0.89 m/s, 180° | - | - |
| 1778037302 | 17.22° C | 69% | 1012.2 hPa | 0 mm | 0.89 m/s, 135° | - | - |
| 1778035488 | 18.33° C | 62% | 1012 hPa | 0 mm | 0.45 m/s, 22° | - | - |
| 1778033672 | - | - | 1012 hPa | 0 mm | 0.89 m/s, 202° | - | - |
| 1778031857 | - | - | 1011.9 hPa | 0 mm | 0.89 m/s, 202° | - | - |
| 1778030043 | - | - | 1012 hPa | 0 mm | 0.89 m/s, 202° | - | - |
| 1778028228 | 20.56° C | 56% | 1012.1 hPa | 0 mm | 0.89 m/s, 202° | - | - |
| 1778026411 | 21.11° C | 55% | 1012.2 hPa | 0 mm | 0.89 m/s, 158° | - | - |
| 1778024583 | 21.11° C | 55% | 1012.5 hPa | 0 mm | 1.79 m/s, 112° | - | - |
| 1778022781 | 21.67° C | 55% | 1012.7 hPa | 0 mm | 0.89 m/s, 338° | - | - |
| 1778020966 | 21.67° C | 54% | 1012.9 hPa | 0 mm | 1.34 m/s, 158° | - | - |
| 1778019151 | 22.22° C | 53% | 1013.1 hPa | 0 mm | 1.79 m/s, 158° | - | - |
| 1778017336 | 22.22° C | 54% | 1013.3 hPa | 0 mm | 1.34 m/s, 180° | - | - |
| 1778015521 | 22.22° C | 53% | 1013.5 hPa | 0 mm | 1.34 m/s, 158° | - | - |
| 1778013705 | 22.78° C | 55% | 1013.7 hPa | 0 mm | 1.34 m/s, 158° | - | - |
| 1778011890 | 21.67° C | 55% | 1013.8 hPa | 0 mm | 1.34 m/s, 112° | - | - |
* Rain latest hour (hover to see other rain measurements)
** Current wind speed in m/s (hover to see current wind gust speed)